»·PEaware :: N1021W KWJF-KPOC

N1021W :: KWJF-KPOC

FLIGHT INFORMATION

Flight Status: Arrived
Operator: Privately registered:
United States
More flights under this callsign
Pilot: Larry S. (744)
Aircraft: BEECH AIRCRAFT BONANZA
(BE36)
More flights by this aircraft type
Origin: KWJF Gen Fox
United States
Destination: KPOC Brackett
United States
More flights between these airports :: More routes between these airports
Route: +PMD V518 KIMMO V459 DARTS V186 PDZ
File this flight plan on PilotEdge
Remarks: / V /
Altitude:
(Current/Filed)
8,000ft
Speed:
(Current/Filed)
165kts
Departed: 13-Mar-14 08:12 PM
Arrived: 13-Mar-14 08:47 PM
Distance/Time
Traveled:
45nm/0:35
Distance/Time
To Go:
Arrived

Flight Plot

Page will automatically refresh every two minutes.


Map Options




Map Legend


Flown Route
Filed Route
Departure Airport
Arrival Airport
Navaid (VOR, NDB)
Fix

Horizontal Profiles

Position Reports

Time Latitude Longitude Heading Altitude Ground
Speed
13-Mar-14 19:33 34.739136 -118.212658 71 2352ft 0kts
13-Mar-14 19:34 34.739136 -118.212658 71 2352ft 0kts
13-Mar-14 19:35 34.739136 -118.212657 71 2352ft 0kts
13-Mar-14 19:37 34.739136 -118.212657 71 2352ft 0kts
13-Mar-14 19:37 34.739136 -118.212657 71 2352ft 0kts
13-Mar-14 19:38 34.739136 -118.212656 71 2352ft 0kts
13-Mar-14 19:39 34.739136 -118.212656 71 2352ft 0kts
13-Mar-14 19:40 34.739136 -118.212655 71 2352ft 0kts
13-Mar-14 19:41 34.739136 -118.212655 71 2352ft 0kts
13-Mar-14 19:42 34.739136 -118.212655 71 2352ft 0kts
13-Mar-14 19:43 34.739137 -118.212654 71 2352ft 0kts
13-Mar-14 19:44 34.739137 -118.212654 71 2352ft 0kts
13-Mar-14 19:45 34.739137 -118.212653 71 2352ft 0kts
13-Mar-14 19:46 34.739137 -118.212653 71 2352ft 0kts
13-Mar-14 19:47 34.739137 -118.212653 71 2352ft 0kts
13-Mar-14 19:48 34.739137 -118.212652 71 2352ft 0kts
13-Mar-14 19:49 34.739137 -118.212652 71 2352ft 0kts
13-Mar-14 19:50 34.739137 -118.212651 71 2352ft 0kts
13-Mar-14 19:51 34.739137 -118.212651 71 2352ft 0kts
13-Mar-14 19:52 34.739138 -118.212651 71 2352ft 0kts
13-Mar-14 19:53 34.739138 -118.212650 71 2352ft 0kts
13-Mar-14 19:54 34.739138 -118.212650 71 2352ft 0kts
13-Mar-14 19:55 34.739138 -118.212650 71 2352ft 0kts
13-Mar-14 19:56 34.739138 -118.212649 71 2352ft 0kts
13-Mar-14 19:57 34.739138 -118.212649 71 2352ft 0kts
13-Mar-14 19:58 34.739138 -118.212648 71 2352ft 0kts
13-Mar-14 19:59 34.739930 -118.213149 300 2352ft 8kts
13-Mar-14 20:00 34.741441 -118.213158 74 2352ft 13kts
13-Mar-14 20:01 34.742517 -118.209950 95 2352ft 15kts
13-Mar-14 20:02 34.743088 -118.207071 345 2352ft 3kts
13-Mar-14 20:03 34.743117 -118.207085 337 2352ft 0kts
13-Mar-14 20:04 34.743118 -118.207085 337 2352ft 0kts
13-Mar-14 20:05 34.743913 -118.207826 248 2352ft 0kts
13-Mar-14 20:06 34.738220 -118.228698 257 2617ft 112kts
13-Mar-14 20:07 34.713637 -118.227066 117 3766ft 121kts
13-Mar-14 20:09 34.701532 -118.189300 105 4827ft 113kts
13-Mar-14 20:10 34.691881 -118.152751 93 5738ft 113kts
13-Mar-14 20:11 34.673573 -118.121531 135 6226ft 146kts
13-Mar-14 20:12 34.645863 -118.081420 136 6193ft 163kts
13-Mar-14 20:13 34.610835 -118.049945 157 6654ft 157kts
13-Mar-14 20:14 34.578087 -118.075437 253 6963ft 170kts
13-Mar-14 20:15 34.563215 -118.127860 254 7535ft 158kts
13-Mar-14 20:16 34.548324 -118.176894 253 8099ft 154kts
13-Mar-14 20:16 34.534006 -118.218443 241 8537ft 157kts
13-Mar-14 20:18 34.503391 -118.268914 233 9011ft 166kts
13-Mar-14 20:19 34.474043 -118.315641 232 9013ft 178kts
13-Mar-14 20:19 34.448772 -118.355927 229 9000ft 181kts
13-Mar-14 20:20 34.414118 -118.403240 198 8524ft 185kts
13-Mar-14 20:21 34.366829 -118.391528 158 7920ft 186kts
13-Mar-14 20:22 34.320221 -118.364865 157 7368ft 184kts
13-Mar-14 20:23 34.276460 -118.339407 153 6975ft 157kts
13-Mar-14 20:24 34.240268 -118.318474 152 6973ft 136kts
13-Mar-14 20:25 34.205666 -118.298403 152 6975ft 138kts
13-Mar-14 20:26 34.170795 -118.278182 153 6975ft 138kts
13-Mar-14 20:27 34.148107 -118.242713 114 6977ft 143kts
13-Mar-14 20:28 34.134230 -118.198143 113 6908ft 145kts
13-Mar-14 20:29 34.118676 -118.147529 114 6131ft 177kts
13-Mar-14 20:30 34.101738 -118.091977 113 5445ft 172kts
13-Mar-14 20:31 34.085753 -118.040277 104 4973ft 153kts
13-Mar-14 20:32 34.071675 -117.994885 114 4977ft 138kts
13-Mar-14 20:33 34.057627 -117.952344 115 4979ft 135kts
13-Mar-14 20:34 34.043685 -117.909742 116 4716ft 140kts
13-Mar-14 20:35 34.044126 -117.866457 52 4090ft 119kts
13-Mar-14 20:36 34.061281 -117.836800 49 2959ft 104kts
13-Mar-14 20:37 34.074123 -117.805936 85 2278ft 103kts
13-Mar-14 20:38 34.068446 -117.773788 108 2144ft 101kts
13-Mar-14 20:39 34.077035 -117.750195 354 1989ft 88kts
13-Mar-14 20:40 34.090530 -117.767975 276 1274ft 68kts
13-Mar-14 20:41 34.091402 -117.784263 273 1015ft 6kts
13-Mar-14 20:42 34.091068 -117.784526 183 1015ft 0kts
13-Mar-14 20:43 34.091068 -117.784526 183 1015ft 0kts
13-Mar-14 20:44 34.090545 -117.783253 134 1015ft 6kts
13-Mar-14 20:45 34.089512 -117.782136 95 1015ft 0kts
13-Mar-14 20:46 34.089512 -117.782136 95 1015ft 0kts
13-Mar-14 20:47 34.089512 -117.782136 95 1015ft 0kts

Navigation Log

Ident Type
Flight plan parsing failed, navigation log unavailable